Time;durP1;ratioP1;P1;durP2;ratioP2;P2;SDS_P1;SDS_P2;PMS_P1;PMS_P2;Temp;Humidity;BMP_temperature;BMP_pressure;BME280_temperature;BME280_humidity;BME280_pressure;Samples;Min_cycle;Max_cycle;Signal;HPM_P1;HPM_P2
2022/07/19 00:02:24;;;;;;;1.27;0.77;;;;;;;18.61;100.00;99754.00;7386552;19;20452;-80
2022/07/19 00:04:50;;;;;;;2.58;1.75;;;;;;;18.58;100.00;99755.09;7387412;19;20487;-80
2022/07/19 00:07:16;;;;;;;1.27;0.40;;;;;;;18.53;100.00;99753.09;7393434;19;20014;-79
2022/07/19 00:09:42;;;;;;;4.13;1.35;;;;;;;18.51;100.00;99758.50;7388252;19;20011;-79
2022/07/19 00:12:08;;;;;;;3.70;1.10;;;;;;;18.46;100.00;99750.88;7388369;19;20022;-78
2022/07/19 00:14:34;;;;;;;2.92;0.90;;;;;;;18.44;100.00;99759.88;7386053;19;20480;-79
2022/07/19 00:17:01;;;;;;;0.82;0.43;;;;;;;18.40;100.00;99756.56;7390927;19;20026;-79
2022/07/19 00:19:27;;;;;;;2.28;0.82;;;;;;;18.41;100.00;99746.78;7385043;19;20041;-79
2022/07/19 00:21:53;;;;;;;6.93;0.90;;;;;;;18.41;100.00;99760.91;7386266;19;20026;-79
2022/07/19 00:24:19;;;;;;;4.60;0.80;;;;;;;18.43;100.00;99749.84;7385279;19;20017;-79
2022/07/19 00:26:45;;;;;;;3.58;1.85;;;;;;;18.41;100.00;99752.44;7392836;19;20024;-78
2022/07/19 00:29:11;;;;;;;2.78;1.10;;;;;;;18.38;100.00;99749.94;7387830;19;20018;-79
2022/07/19 00:31:37;;;;;;;3.22;0.93;;;;;;;18.36;100.00;99753.28;7389000;19;20019;-78
2022/07/19 00:34:03;;;;;;;1.65;0.82;;;;;;;18.33;100.00;99748.69;7385867;19;20031;-79
2022/07/19 00:36:30;;;;;;;2.10;1.00;;;;;;;18.29;100.00;99751.06;7386761;19;20388;-80
2022/07/19 00:38:56;;;;;;;4.22;1.20;;;;;;;18.29;100.00;99747.47;7386514;19;20050;-79
2022/07/19 00:41:22;;;;;;;1.00;0.70;;;;;;;18.27;100.00;99747.25;7383245;19;20014;-79
2022/07/19 00:43:50;;;;;;;5.45;1.38;;;;;;;18.28;100.00;99738.25;7383200;19;20010;-78
2022/07/19 00:46:20;;;;;;;2.03;0.60;;;;;;;18.26;100.00;99742.91;7388675;19;20472;-79
2022/07/19 00:48:48;;;;;;;5.30;0.60;;;;;;;18.18;100.00;99743.50;7391293;19;20022;-80
2022/07/19 00:51:16;;;;;;;16.27;1.15;;;;;;;18.14;100.00;99739.47;7386909;19;20108;-78
2022/07/19 00:53:44;;;;;;;2.35;0.80;;;;;;;18.06;100.00;99739.28;7387301;19;20018;-79
2022/07/19 00:56:12;;;;;;;1.13;0.75;;;;;;;18.02;100.00;99733.19;7387973;19;20503;-79
2022/07/19 00:58:39;;;;;;;1.42;0.43;;;;;;;18.01;100.00;99742.16;7382131;19;20352;-78
2022/07/19 01:01:07;;;;;;;2.00;0.45;;;;;;;17.98;100.00;99735.53;7383753;19;20015;-78
2022/07/19 01:03:39;;;;;;;3.05;1.63;;;;;;;17.97;100.00;99747.34;7385824;19;20018;-78
2022/07/19 01:06:06;;;;;;;0.90;0.75;;;;;;;17.94;100.00;99739.94;7386212;19;20384;-78
2022/07/19 01:08:32;;;;;;;3.47;1.05;;;;;;;17.88;100.00;99734.38;7385533;19;20018;-79
2022/07/19 01:10:59;;;;;;;2.05;0.20;;;;;;;17.82;100.00;99741.38;7385026;19;20019;-79
2022/07/19 01:13:25;;;;;;;1.65;0.55;;;;;;;17.79;100.00;99731.13;7385500;19;20354;-79
2022/07/19 01:15:51;;;;;;;2.30;1.08;;;;;;;17.70;100.00;99725.84;7386233;19;20136;-78
2022/07/19 01:18:17;;;;;;;2.80;0.77;;;;;;;17.66;100.00;99728.97;7382125;19;20033;-78
2022/07/19 01:20:44;;;;;;;1.63;1.13;;;;;;;17.63;100.00;99720.81;7382814;19;20074;-79
2022/07/19 01:23:10;;;;;;;3.50;1.17;;;;;;;17.58;100.00;99722.41;7384786;19;20046;-79
2022/07/19 01:25:37;;;;;;;4.38;0.68;;;;;;;17.54;100.00;99719.13;7384799;19;20698;-79
2022/07/19 01:28:05;;;;;;;4.00;1.00;;;;;;;17.52;100.00;99712.47;7386622;19;20019;-80
2022/07/19 01:30:32;;;;;;;2.13;0.80;;;;;;;17.50;100.00;99709.41;7384768;19;20606;-79
2022/07/19 01:32:59;;;;;;;1.23;0.73;;;;;;;17.49;100.00;99719.13;7383881;19;20737;-79
2022/07/19 01:35:26;;;;;;;5.47;1.10;;;;;;;17.47;100.00;99711.22;7385630;19;20020;-79
2022/07/19 01:37:52;;;;;;;3.72;1.15;;;;;;;17.49;100.00;99714.25;7383316;19;20093;-79
2022/07/19 01:40:19;;;;;;;2.65;0.77;;;;;;;17.46;100.00;99715.31;7381914;19;20043;-79
2022/07/19 01:42:47;;;;;;;3.33;0.90;;;;;;;17.43;100.00;99708.66;7385456;19;20019;-79
2022/07/19 01:45:14;;;;;;;10.55;0.80;;;;;;;17.41;100.00;99718.97;7382741;19;20029;-79
2022/07/19 01:47:41;;;;;;;2.22;1.45;;;;;;;17.35;100.00;99721.03;7388822;19;20023;-79
2022/07/19 01:50:09;;;;;;;0.85;0.80;;;;;;;17.30;100.00;99716.97;7383950;19;20006;-79
2022/07/19 01:52:35;;;;;;;0.82;0.70;;;;;;;17.31;100.00;99714.94;7386116;19;20022;-79
2022/07/19 01:55:03;;;;;;;1.67;0.90;;;;;;;17.29;100.00;99711.88;7383417;19;20049;-78
2022/07/19 01:57:29;;;;;;;0.98;0.70;;;;;;;17.24;100.00;99705.00;7386550;19;20017;-79
2022/07/19 01:59:57;;;;;;;3.15;0.95;;;;;;;17.19;100.00;99703.03;7383709;19;20368;-78
2022/07/19 02:02:23;;;;;;;1.30;0.52;;;;;;;17.12;100.00;99708.44;7385077;19;20041;-78
2022/07/19 02:04:49;;;;;;;1.42;0.70;;;;;;;17.07;100.00;99706.44;7385034;19;20029;-80
2022/07/19 02:07:15;;;;;;;1.95;0.70;;;;;;;17.06;100.00;99716.19;7390517;19;20025;-79
2022/07/19 02:09:42;;;;;;;4.20;1.33;;;;;;;17.05;100.00;99714.63;7384134;19;20010;-79
2022/07/19 02:12:08;;;;;;;2.05;1.08;;;;;;;17.06;100.00;99707.75;7389514;19;20659;-79
2022/07/19 02:14:34;;;;;;;2.35;0.88;;;;;;;17.06;100.00;99716.19;7388287;19;20018;-79
2022/07/19 02:17:00;;;;;;;6.53;0.70;;;;;;;17.13;100.00;99712.81;7391518;19;20361;-78
2022/07/19 02:19:26;;;;;;;1.10;0.35;;;;;;;17.17;100.00;99716.09;7389788;19;20118;-79
2022/07/19 02:21:52;;;;;;;2.20;0.88;;;;;;;17.22;100.00;99706.81;7389109;19;20089;-79
2022/07/19 02:24:18;;;;;;;0.88;0.80;;;;;;;17.26;100.00;99707.31;7388203;19;20517;-79
2022/07/19 02:26:45;;;;;;;4.60;1.02;;;;;;;17.30;100.00;99707.78;7394907;19;20026;-78
2022/07/19 02:29:11;;;;;;;5.50;1.23;;;;;;;17.31;100.00;99696.00;7390072;19;20015;-79
2022/07/19 02:31:37;;;;;;;2.72;0.52;;;;;;;17.29;100.00;99703.44;7393066;19;20646;-80
2022/07/19 02:34:04;;;;;;;1.65;0.75;;;;;;;17.31;100.00;99698.03;7391026;19;20053;-80
2022/07/19 02:36:30;;;;;;;2.55;1.02;;;;;;;17.31;100.00;99698.03;7392474;19;20025;-79
2022/07/19 02:38:58;;;;;;;4.43;0.65;;;;;;;17.34;100.00;99688.56;7390326;19;20014;-79
2022/07/19 02:41:24;;;;;;;13.68;0.80;;;;;;;17.36;100.00;99688.78;7389142;19;20018;-79
2022/07/19 02:43:50;;;;;;;2.95;0.60;;;;;;;17.35;100.00;99685.22;7389406;19;20026;-79
2022/07/19 02:46:16;;;;;;;1.05;0.80;;;;;;;17.43;100.00;99691.78;7392981;19;20018;-79
2022/07/19 02:48:43;;;;;;;5.70;1.73;;;;;;;17.47;100.00;99688.69;7396257;19;20232;-79
2022/07/19 02:51:11;;;;;;;2.08;0.70;;;;;;;17.50;100.00;99687.66;7389163;19;20357;-78
2022/07/19 02:53:38;;;;;;;3.78;0.70;;;;;;;17.49;100.00;99688.16;7391159;19;20011;-79
2022/07/19 02:56:04;;;;;;;0.47;0.22;;;;;;;17.44;100.00;99692.53;7390636;19;20074;-78
2022/07/19 02:58:30;;;;;;;3.85;1.48;;;;;;;17.40;100.00;99686.44;7391280;19;20026;-79
2022/07/19 03:00:57;;;;;;;5.35;1.40;;;;;;;17.35;100.00;99682.41;7388925;19;20015;-80
2022/07/19 03:06:08;;;;;;;5.32;0.95;;;;;;;17.26;100.00;99673.53;7390368;19;20018;-79
2022/07/19 03:08:34;;;;;;;0.82;0.65;;;;;;;17.22;100.00;99673.03;7390923;19;20033;-79
2022/07/19 03:11:00;;;;;;;4.07;1.38;;;;;;;17.23;100.00;99668.97;7390188;19;20067;-78
2022/07/19 03:13:26;;;;;;;2.05;1.15;;;;;;;17.20;100.00;99670.75;7389198;19;20014;-79
2022/07/19 03:15:52;;;;;;;1.05;0.65;;;;;;;17.18;100.00;99662.09;7390163;19;20357;-80
2022/07/19 03:18:18;;;;;;;1.38;0.30;;;;;;;17.18;100.00;99656.47;7388805;19;20380;-80
2022/07/19 03:20:45;;;;;;;1.98;0.80;;;;;;;17.17;100.00;99649.28;7387473;19;20015;-79
2022/07/19 03:23:11;;;;;;;1.25;0.75;;;;;;;17.17;100.00;99654.91;7385475;19;20019;-79
2022/07/19 03:25:37;;;;;;;1.33;0.90;;;;;;;17.19;100.00;99645.97;7388178;19;20035;-79
2022/07/19 03:28:04;;;;;;;3.42;0.90;;;;;;;17.19;100.00;99638.31;7391143;19;20015;-79
2022/07/19 03:30:31;;;;;;;3.85;0.73;;;;;;;17.17;100.00;99642.94;7389881;19;20082;-79
2022/07/19 03:32:58;;;;;;;1.95;0.57;;;;;;;17.16;100.00;99636.53;7388663;19;20031;-80
2022/07/19 03:35:24;;;;;;;3.65;0.73;;;;;;;17.18;100.00;99633.19;7387214;19;20025;-80
2022/07/19 03:37:51;;;;;;;1.48;0.88;;;;;;;17.19;100.00;99634.72;7388717;19;20098;-79
2022/07/19 03:40:17;;;;;;;2.60;0.93;;;;;;;17.24;100.00;99631.06;7386870;19;20019;-79
2022/07/19 03:42:43;;;;;;;4.88;1.27;;;;;;;17.27;100.00;99627.97;7388202;19;20014;-79
2022/07/19 03:45:10;;;;;;;5.47;1.50;;;;;;;17.34;100.00;99623.81;7387300;19;20022;-78
2022/07/19 03:47:36;;;;;;;2.30;1.10;;;;;;;17.42;100.00;99616.31;7390925;19;20386;-78
2022/07/19 03:50:04;;;;;;;8.75;0.50;;;;;;;17.46;100.00;99608.31;7389336;19;20017;-78
2022/07/19 03:52:30;;;;;;;9.52;0.93;;;;;;;17.48;100.00;99605.72;7387659;19;20022;-79
2022/07/19 03:54:56;;;;;;;3.90;0.60;;;;;;;17.48;100.00;99605.72;7388235;19;20029;-79
2022/07/19 03:57:22;;;;;;;5.93;1.15;;;;;;;17.43;100.00;99598.13;7390719;19;20042;-80
2022/07/19 03:59:48;;;;;;;1.65;0.50;;;;;;;17.33;100.00;99596.94;7388191;19;20030;-79
2022/07/19 04:02:14;;;;;;;4.05;0.80;;;;;;;17.23;100.00;99605.00;7386192;19;20055;-79
2022/07/19 04:04:41;;;;;;;0.45;0.43;;;;;;;17.13;100.00;99603.06;7386677;19;20018;-78
2022/07/19 04:07:07;;;;;;;2.10;0.90;;;;;;;17.09;100.00;99594.88;7390979;19;20358;-78
2022/07/19 04:09:33;;;;;;;1.75;0.95;;;;;;;17.08;100.00;99601.06;7388905;19;20031;-79
2022/07/19 04:11:59;;;;;;;6.57;0.82;;;;;;;17.03;100.00;99599.03;7388946;19;20886;-80
2022/07/19 04:14:25;;;;;;;4.82;0.80;;;;;;;16.99;100.00;99587.31;7388406;19;20014;-79
2022/07/19 04:16:51;;;;;;;2.67;0.75;;;;;;;16.98;100.00;99594.25;7389913;19;20528;-79
2022/07/19 04:19:18;;;;;;;2.33;0.57;;;;;;;16.92;100.00;99587.91;7386548;19;20041;-78
2022/07/19 04:21:44;;;;;;;0.65;0.40;;;;;;;16.91;100.00;99592.78;7386345;19;20045;-79
2022/07/19 04:24:10;;;;;;;1.23;0.95;;;;;;;16.88;100.00;99590.25;7384897;19;20046;-79
2022/07/19 04:26:36;;;;;;;4.65;1.45;;;;;;;16.86;100.00;99590.00;7390304;19;20380;-76
2022/07/19 04:29:02;;;;;;;6.35;0.55;;;;;;;16.86;100.00;99584.38;7388549;19;20022;-77
2022/07/19 04:31:28;;;;;;;1.08;0.90;;;;;;;16.84;100.00;99586.94;7388571;19;20783;-76
2022/07/19 04:33:54;;;;;;;3.40;1.17;;;;;;;16.88;100.00;99581.81;7386471;19;20035;-77
2022/07/19 04:36:20;;;;;;;3.20;1.17;;;;;;;16.82;100.00;99584.69;7388153;19;20086;-76
2022/07/19 04:38:46;;;;;;;3.13;1.02;;;;;;;16.88;100.00;99584.63;7386268;19;20021;-77
2022/07/19 04:41:12;;;;;;;1.23;0.47;;;;;;;16.88;100.00;99581.81;7385742;19;20035;-77
2022/07/19 04:43:39;;;;;;;3.10;1.02;;;;;;;16.89;100.00;99577.72;7386670;19;20018;-77
2022/07/19 04:46:06;;;;;;;1.42;0.75;;;;;;;16.87;100.00;99572.59;7385754;19;20022;-77
2022/07/19 04:48:32;;;;;;;4.10;1.30;;;;;;;16.93;100.00;99569.75;7390347;19;20011;-77
2022/07/19 04:50:58;;;;;;;3.92;0.73;;;;;;;16.92;100.00;99568.97;7386357;19;20484;-77
2022/07/19 04:53:25;;;;;;;4.43;1.52;;;;;;;16.93;100.00;99572.56;7387958;19;20018;-77
2022/07/19 04:55:51;;;;;;;1.00;0.73;;;;;;;16.96;100.00;99561.00;7386158;19;20058;-76
2022/07/19 04:58:17;;;;;;;1.85;0.88;;;;;;;17.00;100.00;99560.72;7385400;19;20492;-77
2022/07/19 05:00:43;;;;;;;3.90;1.08;;;;;;;17.02;100.00;99558.16;7387392;19;20018;-77
2022/07/19 05:03:09;;;;;;;0.45;0.43;;;;;;;17.01;100.00;99553.78;7388927;19;20522;-77
2022/07/19 05:05:35;;;;;;;1.00;0.80;;;;;;;17.00;100.00;99547.41;7384562;19;20502;-77
2022/07/19 05:08:02;;;;;;;2.13;0.82;;;;;;;17.06;100.00;99555.81;7388829;19;20059;-77
2022/07/19 05:10:28;;;;;;;4.10;0.90;;;;;;;17.12;100.00;99556.50;7389187;19;20047;-77
2022/07/19 05:12:54;;;;;;;6.80;0.88;;;;;;;17.17;100.00;99558.50;7389928;19;20022;-77
2022/07/19 05:15:20;;;;;;;3.70;0.85;;;;;;;17.19;100.00;99561.53;7385337;19;20014;-77
2022/07/19 05:17:46;;;;;;;1.85;0.68;;;;;;;17.27;100.00;99565.28;7385538;19;20010;-77
2022/07/19 05:20:15;;;;;;;2.50;0.90;;;;;;;17.30;100.00;99555.78;7385151;19;20018;-77
2022/07/19 05:22:42;;;;;;;1.70;0.70;;;;;;;17.37;100.00;99564.41;7386807;19;20014;-77
2022/07/19 05:25:09;;;;;;;11.38;0.80;;;;;;;17.34;100.00;99561.88;7385564;19;21159;-79
2022/07/19 05:27:36;;;;;;;7.82;1.38;;;;;;;17.32;100.00;99558.84;7387145;19;20171;-79
2022/07/19 05:30:06;;;;;;;7.68;1.05;;;;;;;17.37;100.00;99561.56;7385410;19;20377;-79
2022/07/19 05:32:32;;;;;;;1.55;1.10;;;;;;;17.48;100.00;99560.69;7385373;19;20014;-79
2022/07/19 05:34:58;;;;;;;2.10;0.80;;;;;;;17.54;100.00;99561.44;7384808;19;20019;-79
2022/07/19 05:37:25;;;;;;;1.95;0.88;;;;;;;17.61;100.00;99558.00;7388347;19;20357;-79
2022/07/19 05:39:51;;;;;;;1.70;0.73;;;;;;;17.63;100.00;99552.59;7382851;19;20015;-79
2022/07/19 05:42:17;;;;;;;0.35;0.30;;;;;;;17.67;100.00;99553.03;7384757;19;20018;-79
2022/07/19 05:44:43;;;;;;;4.38;1.00;;;;;;;17.79;100.00;99554.44;7381625;19;20021;-79
2022/07/19 05:47:09;;;;;;;1.25;0.85;;;;;;;17.87;100.00;99546.88;7392011;19;20022;-79
2022/07/19 05:49:35;;;;;;;2.28;0.70;;;;;;;17.92;100.00;99554.50;7394558;19;20022;-79
2022/07/19 05:52:01;;;;;;;1.83;0.75;;;;;;;18.00;100.00;99561.06;7392684;19;20019;-80
2022/07/19 05:54:28;;;;;;;1.65;0.40;;;;;;;18.09;100.00;99557.09;7392768;19;20018;-80
2022/07/19 05:56:54;;;;;;;2.55;1.02;;;;;;;18.14;100.00;99553.44;7394643;19;20484;-79
2022/07/19 05:59:22;;;;;;;4.53;1.40;;;;;;;18.22;100.00;99570.47;7389949;19;20508;-79
2022/07/19 06:01:49;;;;;;;2.17;0.65;;;;;;;18.32;100.00;99568.81;7389851;19;20090;-79
2022/07/19 06:04:15;;;;;;;1.48;0.55;;;;;;;18.41;100.00;99571.22;7391105;19;20490;-78
2022/07/19 06:06:42;;;;;;;3.90;0.90;;;;;;;18.52;100.00;99565.41;7395908;19;20492;-78
2022/07/19 06:09:11;;;;;;;1.67;0.60;;;;;;;18.61;100.00;99565.00;7393517;19;20036;-79
2022/07/19 06:11:39;;;;;;;3.33;0.68;;;;;;;18.71;100.00;99566.88;7393298;19;20041;-79
2022/07/19 06:14:07;;;;;;;2.55;0.88;;;;;;;18.83;100.00;99559.75;7390797;19;20033;-78
2022/07/19 06:16:33;;;;;;;1.60;0.63;;;;;;;18.95;100.00;99556.75;7390826;19;20021;-79
2022/07/19 06:18:59;;;;;;;1.63;0.70;;;;;;;19.06;100.00;99557.28;7389242;19;20021;-78
2022/07/19 06:21:25;;;;;;;4.25;1.17;;;;;;;19.17;100.00;99557.09;7388060;19;20018;-79
2022/07/19 06:23:51;;;;;;;1.45;0.73;;;;;;;19.35;100.00;99544.97;7387147;19;20018;-78
2022/07/19 06:26:18;;;;;;;1.50;0.57;;;;;;;19.49;100.00;99543.63;7393795;19;20375;-79
2022/07/19 06:28:44;;;;;;;6.28;0.63;;;;;;;19.61;100.00;99536.47;7388469;19;20041;-80
2022/07/19 06:31:12;;;;;;;3.75;1.00;;;;;;;19.68;100.00;99532.22;7391038;19;20462;-79
2022/07/19 06:33:39;;;;;;;4.63;1.08;;;;;;;19.82;100.00;99530.09;7391246;19;20018;-80
2022/07/19 06:36:06;;;;;;;2.15;0.68;;;;;;;19.93;100.00;99529.84;7388820;19;20416;-80
2022/07/19 06:38:32;;;;;;;0.73;0.45;;;;;;;20.05;100.00;99517.78;7387523;19;20511;-81
2022/07/19 06:40:59;;;;;;;3.97;0.82;;;;;;;20.21;100.00;99515.88;7390048;19;20022;-79
2022/07/19 06:43:25;;;;;;;1.77;0.50;;;;;;;20.34;100.00;99513.75;7389736;19;20480;-82
2022/07/19 06:45:51;;;;;;;5.30;0.93;;;;;;;20.50;100.00;99514.66;7389577;19;20038;-81
2022/07/19 06:48:17;;;;;;;1.48;0.57;;;;;;;20.68;100.00;99508.00;7395641;19;20035;-79
2022/07/19 06:50:43;;;;;;;0.38;0.10;;;;;;;20.84;100.00;99506.81;7392501;19;20014;-83
2022/07/19 06:53:09;;;;;;;3.33;0.50;;;;;;;21.01;100.00;99506.34;7391924;19;20102;-79
2022/07/19 06:55:36;;;;;;;0.88;0.32;;;;;;;21.16;100.00;99508.56;7390759;19;20399;-81
2022/07/19 06:58:02;;;;;;;2.13;0.35;;;;;;;21.34;100.00;99507.50;7386784;19;20364;-81
2022/07/19 07:00:29;;;;;;;0.93;0.50;;;;;;;21.46;100.00;99505.91;7387949;19;20022;-81
2022/07/19 07:02:55;;;;;;;1.10;0.43;;;;;;;21.57;100.00;99494.97;7389933;19;20420;-80
2022/07/19 07:05:21;;;;;;;0.70;0.20;;;;;;;21.63;100.00;99495.59;7387007;19;20025;-80
2022/07/19 07:07:48;;;;;;;1.42;0.45;;;;;;;21.68;100.00;99493.88;7390543;19;20762;-80
2022/07/19 07:10:15;;;;;;;2.22;0.75;;;;;;;21.73;100.00;99490.88;7389123;19;20018;-80
2022/07/19 07:12:41;;;;;;;1.17;0.40;;;;;;;21.78;100.00;99492.81;7389803;19;20017;-80
2022/07/19 07:15:07;;;;;;;0.40;0.13;;;;;;;21.83;100.00;99488.28;7384623;19;20077;-80
2022/07/19 07:17:35;;;;;;;2.22;0.40;;;;;;;21.84;100.00;99484.16;7388052;19;20023;-80
2022/07/19 07:20:04;;;;;;;2.15;0.57;;;;;;;21.86;100.00;99481.50;7388813;19;20112;-79
2022/07/19 07:22:31;;;;;;;3.00;0.35;;;;;;;21.92;100.00;99473.56;7388908;19;20078;-79
2022/07/19 07:24:57;;;;;;;1.83;0.47;;;;;;;21.95;100.00;99472.47;7387295;19;20492;-80
2022/07/19 07:27:23;;;;;;;2.70;0.28;;;;;;;21.97;100.00;99471.88;7394119;19;20494;-80
2022/07/19 07:29:49;;;;;;;1.70;0.30;;;;;;;22.00;100.00;99474.38;7389635;19;20544;-80
2022/07/19 07:32:15;;;;;;;0.52;0.10;;;;;;;22.14;100.00;99475.69;7389984;19;20022;-79
2022/07/19 07:34:41;;;;;;;0.93;0.20;;;;;;;22.32;100.00;99474.59;7386341;19;20425;-80
2022/07/19 07:37:08;;;;;;;5.13;0.38;;;;;;;22.48;100.00;99478.94;7391185;19;20015;-80
2022/07/19 07:39:34;;;;;;;0.40;0.30;;;;;;;22.63;100.00;99478.97;7387707;19;20097;-80
2022/07/19 07:42:00;;;;;;;3.03;0.40;;;;;;;22.75;100.00;99472.91;7385068;19;20018;-80
2022/07/19 07:44:26;;;;;;;1.15;0.30;;;;;;;22.86;100.00;99470.44;7387415;19;20029;-79
2022/07/19 07:46:52;;;;;;;0.15;0.10;;;;;;;22.96;100.00;99459.25;7391571;19;20010;-80
2022/07/19 07:49:19;;;;;;;0.93;0.22;;;;;;;23.03;100.00;99461.31;7388158;19;20018;-80
2022/07/19 07:51:45;;;;;;;0.20;0.10;;;;;;;23.11;100.00;99456.38;7387562;19;20027;-81
2022/07/19 07:54:11;;;;;;;6.85;0.50;;;;;;;23.21;100.00;99458.06;7384304;19;20105;-80
2022/07/19 07:56:37;;;;;;;0.10;0.00;;;;;;;23.30;100.00;99454.59;7390584;19;20023;-80
2022/07/19 07:59:04;;;;;;;2.35;1.00;;;;;;;23.42;100.00;99462.75;7387217;19;20356;-79
2022/07/19 08:01:30;;;;;;;2.05;0.65;;;;;;;23.57;100.00;99454.91;7386233;19;20022;-80
2022/07/19 08:03:57;;;;;;;0.95;0.20;;;;;;;23.72;100.00;99457.69;7384441;19;20023;-80
2022/07/19 08:06:23;;;;;;;1.40;0.32;;;;;;;23.88;100.00;99450.59;7389745;19;20378;-80
2022/07/19 08:08:49;;;;;;;2.63;0.20;;;;;;;24.12;100.00;99457.66;7388556;19;20375;-80
2022/07/19 08:11:16;;;;;;;0.82;0.32;;;;;;;24.41;100.00;99455.16;7387266;19;20018;-80
2022/07/19 08:13:42;;;;;;;0.50;0.10;;;;;;;24.48;100.00;99455.09;7391395;19;20488;-80
2022/07/19 08:16:08;;;;;;;1.27;0.22;;;;;;;24.69;100.00;99446.19;7389723;19;20082;-80
2022/07/19 08:18:34;;;;;;;1.90;0.20;;;;;;;24.85;100.00;99453.28;7385192;19;20022;-80
2022/07/19 08:21:00;;;;;;;1.40;0.30;;;;;;;25.05;100.00;99445.66;7385961;19;20483;-80
2022/07/19 08:23:26;;;;;;;0.60;0.20;;;;;;;25.22;100.00;99439.97;7387931;19;20018;-80
2022/07/19 08:25:52;;;;;;;0.75;0.20;;;;;;;25.45;100.00;99446.16;7389282;19;20018;-80
2022/07/19 08:28:18;;;;;;;0.28;0.10;;;;;;;25.40;100.00;99445.06;7388210;19;20022;-80
2022/07/19 08:30:45;;;;;;;1.23;0.13;;;;;;;25.35;100.00;99439.63;7388847;19;20019;-80
2022/07/19 08:33:11;;;;;;;1.35;0.17;;;;;;;25.46;100.00;99437.03;7387356;19;20022;-80
2022/07/19 08:35:37;;;;;;;0.60;0.10;;;;;;;25.65;100.00;99436.41;7386134;19;20399;-80
2022/07/19 08:38:03;;;;;;;4.13;0.43;;;;;;;25.90;100.00;99427.72;7385989;19;20014;-80
2022/07/19 08:40:33;;;;;;;0.60;0.10;;;;;;;26.14;100.00;99424.69;7385540;19;20019;-81
2022/07/19 08:43:03;;;;;;;0.35;0.10;;;;;;;26.52;100.00;99423.31;7387247;19;20037;-79
2022/07/19 08:45:30;;;;;;;0.70;0.30;;;;;;;26.66;100.00;99418.69;7386220;19;20022;-80
2022/07/19 08:48:00;;;;;;;8.00;0.30;;;;;;;26.72;100.00;99419.91;7389789;19;20526;-82
2022/07/19 08:50:26;;;;;;;1.35;0.20;;;;;;;26.78;100.00;99417.53;7388246;19;20018;-82
2022/07/19 08:52:52;;;;;;;2.67;0.40;;;;;;;26.80;100.00;99409.13;7386769;19;20041;-82
2022/07/19 08:55:18;;;;;;;2.40;0.20;;;;;;;26.98;100.00;99413.34;7387257;19;20515;-83
2022/07/19 08:57:57;;;;;;;3.03;1.02;;;;;;;27.18;100.00;99402.66;7385279;19;20491;-81
2022/07/19 09:00:28;;;;;;;2.95;0.15;;;;;;;27.42;100.00;99409.44;7386662;19;20029;-83
2022/07/19 09:02:58;;;;;;;0.82;0.25;;;;;;;27.53;100.00;99403.09;7386738;19;20476;-83
2022/07/19 09:05:26;;;;;;;1.55;0.65;;;;;;;27.78;100.00;99400.66;7384963;19;20010;-83
2022/07/19 09:08:13;;;;;;;0.20;0.10;;;;;;;27.91;100.00;99390.81;7387078;19;20032;-83
2022/07/19 09:10:43;;;;;;;1.95;0.38;;;;;;;28.06;100.00;99391.22;7387510;19;20086;-84
2022/07/19 09:13:14;;;;;;;0.68;0.22;;;;;;;28.16;100.00;99389.06;7388298;19;20014;-85
2022/07/19 09:15:45;;;;;;;2.22;0.40;;;;;;;28.30;100.00;99387.22;7388090;19;20006;-84
2022/07/19 09:18:33;;;;;;;7.72;0.60;;;;;;;28.62;100.00;99382.22;7384565;19;20052;-84
2022/07/19 09:21:05;;;;;;;0.75;0.30;;;;;;;28.89;100.00;99379.75;7385708;19;20018;-82
2022/07/19 09:23:32;;;;;;;0.88;0.28;;;;;;;28.99;100.00;99386.91;7386366;19;20457;-82
2022/07/19 09:26:01;;;;;;;3.33;0.57;;;;;;;29.11;100.00;99376.25;7386119;19;20496;-82
2022/07/19 09:28:31;;;;;;;3.20;0.63;;;;;;;29.30;100.00;99375.34;7387564;19;20372;-83
2022/07/19 09:31:03;;;;;;;2.92;0.30;;;;;;;29.48;100.00;99378.63;7385926;19;20019;-81
2022/07/19 09:33:32;;;;;;;0.90;0.20;;;;;;;29.64;100.00;99373.94;7385899;19;20022;-81
2022/07/19 09:36:01;;;;;;;3.08;0.25;;;;;;;29.78;100.00;99372.75;7386345;19;20024;-81
2022/07/19 09:38:34;;;;;;;1.65;0.80;;;;;;;29.97;100.00;99366.75;7385720;19;20019;-82
2022/07/19 09:41:06;;;;;;;4.05;0.10;;;;;;;30.21;100.00;99366.78;7385098;19;20038;-83
2022/07/19 09:43:59;;;;;;;0.90;0.10;;;;;;;30.40;100.00;99355.06;7386853;19;20031;-85
2022/07/19 09:46:31;;;;;;;2.08;0.13;;;;;;;30.60;100.00;99354.13;7387777;19;20018;-80
2022/07/19 09:49:05;;;;;;;3.60;0.55;;;;;;;30.84;100.00;99351.94;7383187;19;20019;-80
2022/07/19 09:51:40;;;;;;;1.98;0.30;;;;;;;30.94;100.00;99343.19;7384687;19;20484;-81
2022/07/19 09:54:10;;;;;;;0.63;0.10;;;;;;;31.04;100.00;99341.63;7383836;19;20026;-80
2022/07/19 09:56:38;;;;;;;3.42;0.10;;;;;;;31.14;100.00;99339.38;7385273;19;20010;-78
2022/07/19 09:59:05;;;;;;;3.50;0.60;;;;;;;31.25;100.00;99338.53;7379838;19;20023;-78
2022/07/19 10:01:32;;;;;;;2.15;0.17;;;;;;;31.33;100.00;99344.00;7382089;19;20026;-78
2022/07/19 10:04:05;;;;;;;1.17;0.22;;;;;;;31.45;100.00;99344.72;7382359;19;20011;-79
2022/07/19 10:06:32;;;;;;;5.13;0.10;;;;;;;31.65;100.00;99333.56;7389417;19;20029;-79
2022/07/19 10:09:01;;;;;;;0.82;0.10;;;;;;;31.76;100.00;99338.50;7384437;19;20022;-79
2022/07/19 10:11:30;;;;;;;2.33;0.10;;;;;;;31.75;100.00;99334.16;7385869;19;20045;-79
2022/07/19 10:13:56;;;;;;;1.47;0.40;;;;;;;32.01;96.16;99329.84;7388487;19;20020;-79
2022/07/19 10:16:50;;;;;;;1.17;0.52;;;;;;;32.21;99.89;99333.78;7385292;19;20018;-79
2022/07/19 10:19:28;;;;;;;2.83;0.20;;;;;;;32.29;100.00;99328.47;7386148;19;20026;-79
2022/07/19 10:21:55;;;;;;;6.07;0.35;;;;;;;32.38;99.40;99324.59;7385334;19;20379;-79
2022/07/19 10:24:46;;;;;;;1.70;0.22;;;;;;;32.71;97.63;99319.13;7384838;19;20089;-79
2022/07/19 10:27:14;;;;;;;2.72;0.10;;;;;;;32.80;98.91;99329.69;7385880;19;20507;-78
2022/07/19 10:29:41;;;;;;;1.38;0.10;;;;;;;32.93;97.98;99325.25;7385375;19;20034;-80
2022/07/19 10:32:13;;;;;;;4.85;0.60;;;;;;;33.04;91.71;99323.66;7386595;19;20510;-79
2022/07/19 10:34:41;;;;;;;1.67;0.20;;;;;;;33.11;90.99;99316.78;7389766;19;20022;-79
2022/07/19 10:37:07;;;;;;;1.02;0.10;;;;;;;33.28;87.50;99322.69;7392790;19;20368;-80
2022/07/19 10:39:35;;;;;;;1.48;0.35;;;;;;;33.39;95.71;99315.28;7393157;19;20610;-78
2022/07/19 10:42:22;;;;;;;2.10;0.85;;;;;;;33.43;85.92;99312.56;7389212;19;20046;-79
2022/07/19 10:44:57;;;;;;;11.98;0.25;;;;;;;33.56;84.60;99317.56;7388946;19;20476;-79
2022/07/19 10:47:33;;;;;;;0.88;0.10;;;;;;;33.59;78.73;99298.94;7397213;19;20018;-79
2022/07/19 10:50:04;;;;;;;1.95;0.60;;;;;;;33.73;86.24;99305.34;7393153;19;20015;-80
2022/07/19 10:52:32;;;;;;;1.77;0.57;;;;;;;33.80;93.71;99297.72;7388539;19;20078;-80
2022/07/19 10:55:29;;;;;;;4.00;0.43;;;;;;;33.97;80.31;99292.03;7388273;19;20464;-80
2022/07/19 10:57:58;;;;;;;0.85;0.40;;;;;;;34.06;71.51;99281.59;7387669;19;20014;-78
2022/07/19 11:00:28;;;;;;;2.13;0.40;;;;;;;34.18;74.78;99277.09;7388947;19;20353;-78
2022/07/19 11:03:22;;;;;;;7.65;0.30;;;;;;;34.23;88.38;99284.53;7388729;19;20511;-77
2022/07/19 11:06:00;;;;;;;0.77;0.15;;;;;;;34.19;75.91;99272.06;7387985;19;20476;-80
2022/07/19 11:08:35;;;;;;;5.57;0.30;;;;;;;34.40;80.26;99270.78;7389841;19;20382;-79
2022/07/19 11:11:12;;;;;;;5.30;0.20;;;;;;;34.67;64.66;99270.53;7388747;19;20018;-78
2022/07/19 11:13:40;;;;;;;1.75;0.20;;;;;;;34.98;59.65;99267.47;7391220;19;20022;-78
2022/07/19 11:16:06;;;;;;;0.40;0.10;;;;;;;35.22;65.61;99267.72;7387428;19;20019;-78
2022/07/19 11:18:33;;;;;;;0.80;0.17;;;;;;;35.29;61.07;99270.19;7388273;19;20025;-78
2022/07/19 11:21:01;;;;;;;1.40;0.38;;;;;;;35.20;62.88;99265.50;7388201;19;20022;-79
2022/07/19 11:23:35;;;;;;;2.60;0.30;;;;;;;35.22;62.24;99261.94;7386630;19;20499;-78
2022/07/19 11:26:10;;;;;;;3.38;0.70;;;;;;;35.37;58.36;99261.81;7389409;19;20392;-79
2022/07/19 11:28:38;;;;;;;1.70;0.20;;;;;;;35.62;54.00;99252.69;7390168;19;20025;-78
2022/07/19 11:31:17;;;;;;;0.93;0.17;;;;;;;35.75;61.01;99251.75;7387636;19;20082;-77
2022/07/19 11:33:45;;;;;;;0.32;0.20;;;;;;;35.93;57.49;99242.94;7388754;19;20018;-78